San Juan Enterprise — WDD9563 — position and weather

sailwx.info

Track history (hours):
 
Tides and Currents Weather Stations Pressure Air Temp Water Temp Dewpoint Dewpoint Depression Visibility Wind Speed Wind Dir Waves Ship Positions

San Juan Enterprise

More information available from US FCC via Universal Licensing System and Coast Guard Vessel Documentation Center.

Last reported at 2014-Sep-03 01:33 UTC. Time now 2014-Sep-03 02:31 UTC.
Position N 48°31' W 122°36'.

Length 30 m.

MMSI: 367313160.

Date/timePositionNaut miles runAvg speedWind from/ knotsBaromVisibWave heightAir tempDewpointWater temp
2014-Sep-03 01:33N 48°31' W 122°36'0 0.0
2014-Sep-03 00:33N 48°31' W 122°36'0 0.3
2014-Sep-02 23:33N 48°31' W 122°37'9 8.6
2014-Sep-02 22:33N 48°35' W 122°48'0 0.0
2014-Sep-02 21:33N 48°35' W 122°48'8 8.5
2014-Sep-02 20:33N 48°31' W 122°37'0 0.1
2014-Sep-02 19:33N 48°31' W 122°37'9 8.7
2014-Sep-02 18:32N 48°33' W 122°50'6 6.2
2014-Sep-02 17:30N 48°32' W 122°60'0 0.0
2014-Sep-02 16:07N 48°32' W 122°60'4 7.0
2014-Sep-02 15:32N 48°33' W 122°54'8 7.7
2014-Sep-02 14:32N 48°32' W 122°43'5 4.2
2014-Sep-02 13:28N 48°31' W 122°36'0 0.0
2014-Sep-02 12:28N 48°31' W 122°36'0 0.0
2014-Sep-02 11:28N 48°31' W 122°36'0 0.0
2014-Sep-02 10:22N 48°31' W 122°36'0 0.0
2014-Sep-02 09:28N 48°31' W 122°36'0 0.0
2014-Sep-02 08:28N 48°31' W 122°36'0 0.0
2014-Sep-02 07:28N 48°31' W 122°36'0 0.0
2014-Sep-02 06:28N 48°31' W 122°36'0 0.0
2014-Sep-02 05:28N 48°31' W 122°36'0 0.0
2014-Sep-02 04:28N 48°31' W 122°36'0 0.0
2014-Sep-02 03:28N 48°31' W 122°36'0 0.0
2014-Sep-02 02:28N 48°31' W 122°36'0 0.0
2014-Sep-02 01:28N 48°31' W 122°36'0 0.0
2014-Sep-02 00:22N 48°31' W 122°36'0 0.0
2014-Sep-01 23:28N 48°31' W 122°36'0 0.0
2014-Sep-01 22:28N 48°31' W 122°36'0 0.0
2014-Sep-01 21:22N 48°31' W 122°36'0 0.0
2014-Sep-01 20:28N 48°31' W 122°36'0 0.0
2014-Sep-01 19:16N 48°31' W 122°36'0 0.0
2014-Sep-01 18:28N 48°31' W 122°36'0 0.0
2014-Sep-01 17:28N 48°31' W 122°36'0 0.0
2014-Sep-01 16:28N 48°31' W 122°36'0 0.0
2014-Sep-01 15:16N 48°31' W 122°36'0 0.0
2014-Sep-01 14:28N 48°31' W 122°36'0 0.0
2014-Sep-01 13:28N 48°31' W 122°36'0 0.0
2014-Sep-01 12:28N 48°31' W 122°36'0 0.0
2014-Sep-01 11:28N 48°31' W 122°36'0 0.0
2014-Sep-01 10:16N 48°31' W 122°36'0 0.0
2014-Sep-01 09:22N 48°31' W 122°36'0 0.0
2014-Sep-01 08:22N 48°31' W 122°36'0 0.0
2014-Sep-01 07:28N 48°31' W 122°36'0 0.0
2014-Sep-01 06:28N 48°31' W 122°36'0 0.0
2014-Sep-01 05:28N 48°31' W 122°36'0 0.0
2014-Sep-01 04:28N 48°31' W 122°36'0 0.0
2014-Sep-01 03:10N 48°31' W 122°36'0 0.0
2014-Sep-01 02:28N 48°31' W 122°36'0 0.0
2014-Sep-01 01:28N 48°31' W 122°36'0 0.0
2014-Sep-01 00:16N 48°31' W 122°36'0 0.0
2014-Aug-31 23:28N 48°31' W 122°36'0 0.0
2014-Aug-31 22:28N 48°31' W 122°36'0 0.0
2014-Aug-31 21:28N 48°31' W 122°36'0 0.0
2014-Aug-31 20:28N 48°31' W 122°36'0 0.0
2014-Aug-31 19:28N 48°31' W 122°36'0 0.0
2014-Aug-31 18:28N 48°31' W 122°36'0 0.0
2014-Aug-31 17:28N 48°31' W 122°36'0 0.0
2014-Aug-31 16:28N 48°31' W 122°36'0 0.0
2014-Aug-31 15:28N 48°31' W 122°36'0 0.0
2014-Aug-31 14:28N 48°31' W 122°36'0 0.0
2014-Aug-31 13:28N 48°31' W 122°36'0 0.0
2014-Aug-31 12:28N 48°31' W 122°36'0 0.0
2014-Aug-31 11:28N 48°31' W 122°36'0 0.0
2014-Aug-31 10:28N 48°31' W 122°36'0 0.0
2014-Aug-31 09:28N 48°31' W 122°36'0 0.0
2014-Aug-31 08:28N 48°31' W 122°36'0 0.0
2014-Aug-31 07:28N 48°31' W 122°36'0 0.0
2014-Aug-31 06:28N 48°31' W 122°36'0 0.0
2014-Aug-31 05:22N 48°31' W 122°36'0 0.0
2014-Aug-31 04:28N 48°31' W 122°36'0 0.0
2014-Aug-31 03:28N 48°31' W 122°36'0 0.0
2014-Aug-31 02:28N 48°31' W 122°36'0 0.0
2014-Aug-31 01:28N 48°31' W 122°36'0 0.0
2014-Aug-31 00:28N 48°31' W 122°36'0 0.0
2014-Aug-30 23:28N 48°31' W 122°36'0 0.0
2014-Aug-30 22:28N 48°31' W 122°36'0 0.0
2014-Aug-30 21:28N 48°31' W 122°36'0 0.0
2014-Aug-30 20:28N 48°31' W 122°36'0 0.0
2014-Aug-30 19:22N 48°31' W 122°36'0 0.0
2014-Aug-30 18:28N 48°31' W 122°36'0 0.0
2014-Aug-30 17:28N 48°31' W 122°36'0 0.0
2014-Aug-30 16:28N 48°31' W 122°36'0 0.0
2014-Aug-30 15:28N 48°31' W 122°36'0 0.0
2014-Aug-30 14:28N 48°31' W 122°36'0 0.0
2014-Aug-30 13:28N 48°31' W 122°36'0 0.0
2014-Aug-30 12:16N 48°31' W 122°36'0 0.0
2014-Aug-30 11:28N 48°31' W 122°36'0 0.0
2014-Aug-30 10:28N 48°31' W 122°36'0 0.0
2014-Aug-30 09:28N 48°31' W 122°36'0 0.0
2014-Aug-30 08:28N 48°31' W 122°36'0 0.0
2014-Aug-30 07:28N 48°31' W 122°36'0 0.0
2014-Aug-30 06:28N 48°31' W 122°36'0 0.0
2014-Aug-30 05:28N 48°31' W 122°36'0 0.0
2014-Aug-30 04:28N 48°31' W 122°36'0 0.0
2014-Aug-30 03:28N 48°31' W 122°36'0 0.0
2014-Aug-30 02:22N 48°31' W 122°36'0 0.0
2014-Aug-30 01:28N 48°31' W 122°36'0 0.0
2014-Aug-30 00:28N 48°31' W 122°36'0 0.0
2014-Aug-29 23:28N 48°31' W 122°36'0 0.0
2014-Aug-29 22:28N 48°31' W 122°36'0 0.0
2014-Aug-29 21:28N 48°31' W 122°36'0 0.0
2014-Aug-29 20:28N 48°31' W 122°36'0 0.0
2014-Aug-29 19:28N 48°31' W 122°36'0 0.0
2014-Aug-29 18:28N 48°31' W 122°36'0 0.0
2014-Aug-29 17:28N 48°31' W 122°36'0 0.0
2014-Aug-29 16:28N 48°31' W 122°36'0 0.0
2014-Aug-29 15:22N 48°31' W 122°36'0 0.0
2014-Aug-29 14:31N 48°31' W 122°36'0 0.0
2014-Aug-29 13:28N 48°31' W 122°36'0 0.0
2014-Aug-29 12:31N 48°31' W 122°36'0 0.0
2014-Aug-29 11:28N 48°31' W 122°36'0 0.0
2014-Aug-29 10:28N 48°31' W 122°36'0 0.0
2014-Aug-29 09:28N 48°31' W 122°36'0 0.0
2014-Aug-29 08:22N 48°31' W 122°36'0 0.0
2014-Aug-29 07:28N 48°31' W 122°36'0 0.0
2014-Aug-29 06:22N 48°31' W 122°36'0 0.0
2014-Aug-29 05:28N 48°31' W 122°36'0 0.0
2014-Aug-29 04:28N 48°31' W 122°36'0 0.0
2014-Aug-29 03:22N 48°31' W 122°36'0 0.0
2014-Aug-29 02:28N 48°31' W 122°36'0 0.0
2014-Aug-29 01:28N 48°31' W 122°36'0 0.0
2014-Aug-29 00:16N 48°31' W 122°36'0 0.0
2014-Aug-28 23:28N 48°31' W 122°36'0 0.0
2014-Aug-28 22:28N 48°31' W 122°36'0 0.0
2014-Aug-28 21:33N 48°31' W 122°36'1 0.6
2014-Aug-28 20:33N 48°31' W 122°36'2 2.3
2014-Aug-28 19:34N 48°32' W 122°40'8 7.8
2014-Aug-28 18:33N 48°36' W 122°49'1 0.9
2014-Aug-28 17:33N 48°36' W 122°49'1 0.9
2014-Aug-28 16:33N 48°36' W 122°49'7 7.4
2014-Aug-28 15:33N 48°32' W 122°40'2 2.4
2014-Aug-28 14:31N 48°31' W 122°36'0 0.0
2014-Aug-28 13:31N 48°31' W 122°36'0 0.0
2014-Aug-28 12:31N 48°31' W 122°36'0 0.0
2014-Aug-28 11:31N 48°31' W 122°36'0 0.0
2014-Aug-28 10:31N 48°31' W 122°36'0 0.0
2014-Aug-28 09:31N 48°31' W 122°36'0 0.0
2014-Aug-28 08:25N 48°31' W 122°36'0 0.0
2014-Aug-28 07:31N 48°31' W 122°36'0 0.0
2014-Aug-28 06:31N 48°31' W 122°36'0 0.0
2014-Aug-28 05:31N 48°31' W 122°36'0 0.0
2014-Aug-28 04:31N 48°31' W 122°36'0 0.0
2014-Aug-28 03:33N 48°31' W 122°36'6 6.3
2014-Aug-28 02:33N 48°32' W 122°46'8 7.6
2014-Aug-28 01:33N 48°33' W 122°57'1 0.7
2014-Aug-27 23:32N 48°32' W 122°59'7 7.6
2014-Aug-27 22:33N 48°32' W 122°48'8 7.7
2014-Aug-27 21:33N 48°31' W 122°36'0 0.0
2014-Aug-27 20:33N 48°31' W 122°36'5 4.7
2014-Aug-27 19:33N 48°32' W 122°43'9 7.6
2014-Aug-27 18:21N 48°32' W 122°57'2 1.0
2014-Aug-27 16:19N 48°32' W 122°60'6 7.7
2014-Aug-27 15:33N 48°34' W 122°52'8 8.2
2014-Aug-27 14:33N 48°32' W 122°40'2 2.3
2014-Aug-27 13:32N 48°31' W 122°36'0 0.0
2014-Aug-27 12:32N 48°31' W 122°36'0 0.0
2014-Aug-27 11:32N 48°31' W 122°36'0 0.0
2014-Aug-27 10:32N 48°31' W 122°36'0 0.0
2014-Aug-27 09:32N 48°31' W 122°36'0 0.0
2014-Aug-27 08:32N 48°31' W 122°36'3 3.3
2014-Aug-27 07:33N 48°32' W 122°41'8 8.3
2014-Aug-27 06:33N 48°35' W 122°53'5 3.6
2014-Aug-27 05:08N 48°36' W 123°00'5 8.5
2014-Aug-27 04:33N 48°41' W 122°60'10 9.5
2014-Aug-27 03:33N 48°51' W 122°59'9 9.3
2014-Aug-27 02:33N 48°59' W 123°06'3 2.9
2014-Aug-27 01:33N 48°57' W 123°03'10 9.7
2014-Aug-27 00:33N 48°49' W 122°54'1010.2
2014-Aug-26 23:33N 48°41' W 122°45'9 8.7
2014-Aug-26 22:31N 48°32' W 122°44'10 8.1
2014-Aug-26 21:18N 48°24' W 122°34'0 0.2
2014-Aug-26 20:05N 48°25' W 122°34'1 1.2
2014-Aug-26 19:05N 48°25' W 122°36'4 7.7
2014-Aug-26 18:31N 48°27' W 122°42'6 5.8
2014-Aug-26 17:33N 48°31' W 122°37'1 0.6
2014-Aug-26 16:33N 48°32' W 122°38'1 0.8
2014-Aug-26 15:30N 48°31' W 122°36'0 0.0
2014-Aug-26 14:30N 48°31' W 122°36'0 0.0
2014-Aug-26 13:30N 48°31' W 122°36'0 0.0
2014-Aug-26 12:30N 48°31' W 122°36'0 0.0
2014-Aug-26 11:30N 48°31' W 122°36'0 0.0
2014-Aug-26 10:33N 48°31' W 122°36'0 0.0
2014-Aug-26 09:33N 48°31' W 122°36'0 0.0
2014-Aug-26 08:30N 48°31' W 122°36'0 0.0
2014-Aug-26 07:30N 48°31' W 122°36'0 0.0
2014-Aug-26 06:33N 48°31' W 122°36'7 6.7
2014-Aug-26 05:33N 48°37' W 122°42'9 8.7
2014-Aug-26 04:34N 48°44' W 122°48'1010.0
2014-Aug-26 03:33N 48°52' W 122°57'9 7.4
2014-Aug-26 02:23N 48°59' W 123°05'0 0.2
2014-Aug-26 01:34N 48°59' W 123°05'9 8.6
2014-Aug-26 00:33N 48°52' W 122°58'9 8.9
2014-Aug-25 23:33N 48°45' W 122°49'9 9.1
2014-Aug-25 22:33N 48°37' W 122°42'7 7.4
2014-Aug-25 21:33N 48°31' W 122°36'0 0.0
2014-Aug-25 20:33N 48°31' W 122°36'0 0.0
2014-Aug-25 19:33N 48°31' W 122°36'7 7.1
2014-Aug-25 18:33N 48°34' W 122°46'1 0.7
2014-Aug-25 17:33N 48°35' W 122°46'7 6.8
2014-Aug-25 16:33N 48°31' W 122°37'7 6.5
2014-Aug-25 15:33N 48°37' W 122°42'0 0.0
2014-Aug-25 14:33N 48°37' W 122°42'6 6.0
2014-Aug-25 13:33N 48°32' W 122°38'1 0.8
2014-Aug-25 12:30N 48°31' W 122°36'0 0.0
2014-Aug-25 11:30N 48°31' W 122°36'0 0.0
2014-Aug-25 10:30N 48°31' W 122°36'0 0.0
2014-Aug-25 09:24N 48°31' W 122°36'0 0.0
2014-Aug-25 08:30N 48°31' W 122°36'0 0.0
2014-Aug-25 07:30N 48°31' W 122°36'0 0.0
2014-Aug-25 06:30N 48°31' W 122°36'0 0.0
2014-Aug-25 05:30N 48°31' W 122°36'0 0.0
2014-Aug-25 04:30N 48°31' W 122°36'0 0.0
2014-Aug-25 03:30N 48°31' W 122°36'0 0.0
2014-Aug-25 02:30N 48°31' W 122°36'0 0.0
2014-Aug-25 01:24N 48°31' W 122°36'0 0.0
2014-Aug-25 00:24N 48°31' W 122°36'0 0.0
2014-Aug-24 23:30N 48°31' W 122°36'0 0.0
2014-Aug-24 22:30N 48°31' W 122°36'0 0.0
2014-Aug-24 21:30N 48°31' W 122°36'0 0.0
2014-Aug-24 20:30N 48°31' W 122°36'0 0.0
2014-Aug-24 19:24N 48°31' W 122°36'0 0.0
2014-Aug-24 18:12N 48°31' W 122°36'0 0.0
2014-Aug-24 17:30N 48°31' W 122°36'0 0.0
2014-Aug-24 16:30N 48°31' W 122°36'0 0.0
2014-Aug-24 15:30N 48°31' W 122°36'0 0.0
2014-Aug-24 14:30N 48°31' W 122°36'0 0.0
2014-Aug-24 13:30N 48°31' W 122°36'0 0.0
2014-Aug-24 12:30N 48°31' W 122°36'0 0.0
2014-Aug-24 11:30N 48°31' W 122°36'0 0.0
2014-Aug-24 10:30N 48°31' W 122°36'0 0.0
2014-Aug-24 09:30N 48°31' W 122°36'0 0.0
2014-Aug-24 08:30N 48°31' W 122°36'0 0.0
2014-Aug-24 07:24N 48°31' W 122°36'0 0.0
2014-Aug-24 06:12N 48°31' W 122°36'0 0.0
2014-Aug-24 05:30N 48°31' W 122°36'0 0.0
2014-Aug-24 04:30N 48°31' W 122°36'0 0.0
2014-Aug-24 03:30N 48°31' W 122°36'0 0.0
2014-Aug-24 02:30N 48°31' W 122°36'  
Track history (hours):
 
Tides and Currents Weather Stations Pressure Air Temp Water Temp Dewpoint Dewpoint Depression Visibility Wind Speed Wind Dir Waves Ship Positions

San Juan Enterprise

More information available from US FCC via Universal Licensing System and Coast Guard Vessel Documentation Center.

Last reported at 2014-Sep-03 01:33 UTC. Time now 2014-Sep-03 02:31 UTC.
Position N 48°31' W 122°36'.

Length 30 m.

MMSI: 367313160.

Date/timePositionNaut miles runAvg speedWind from/ knotsBaromVisibWave heightAir tempDewpointWater temp
2014-Sep-03 01:33N 48°31' W 122°36'0 0.0
2014-Sep-03 00:33N 48°31' W 122°36'0 0.3
2014-Sep-02 23:33N 48°31' W 122°37'9 8.6
2014-Sep-02 22:33N 48°35' W 122°48'0 0.0
2014-Sep-02 21:33N 48°35' W 122°48'8 8.5
2014-Sep-02 20:33N 48°31' W 122°37'0 0.1
2014-Sep-02 19:33N 48°31' W 122°37'9 8.7
2014-Sep-02 18:32N 48°33' W 122°50'6 6.2
2014-Sep-02 17:30N 48°32' W 122°60'0 0.0
2014-Sep-02 16:07N 48°32' W 122°60'4 7.0
2014-Sep-02 15:32N 48°33' W 122°54'8 7.7
2014-Sep-02 14:32N 48°32' W 122°43'5 4.2
2014-Sep-02 13:28N 48°31' W 122°36'0 0.0
2014-Sep-02 12:28N 48°31' W 122°36'0 0.0
2014-Sep-02 11:28N 48°31' W 122°36'0 0.0
2014-Sep-02 10:22N 48°31' W 122°36'0 0.0
2014-Sep-02 09:28N 48°31' W 122°36'0 0.0
2014-Sep-02 08:28N 48°31' W 122°36'0 0.0
2014-Sep-02 07:28N 48°31' W 122°36'0 0.0
2014-Sep-02 06:28N 48°31' W 122°36'0 0.0
2014-Sep-02 05:28N 48°31' W 122°36'0 0.0
2014-Sep-02 04:28N 48°31' W 122°36'0 0.0
2014-Sep-02 03:28N 48°31' W 122°36'0 0.0
2014-Sep-02 02:28N 48°31' W 122°36'0 0.0
2014-Sep-02 01:28N 48°31' W 122°36'0 0.0
2014-Sep-02 00:22N 48°31' W 122°36'0 0.0
2014-Sep-01 23:28N 48°31' W 122°36'0 0.0
2014-Sep-01 22:28N 48°31' W 122°36'0 0.0
2014-Sep-01 21:22N 48°31' W 122°36'0 0.0
2014-Sep-01 20:28N 48°31' W 122°36'0 0.0
2014-Sep-01 19:16N 48°31' W 122°36'0 0.0
2014-Sep-01 18:28N 48°31' W 122°36'0 0.0
2014-Sep-01 17:28N 48°31' W 122°36'0 0.0
2014-Sep-01 16:28N 48°31' W 122°36'0 0.0
2014-Sep-01 15:16N 48°31' W 122°36'0 0.0
2014-Sep-01 14:28N 48°31' W 122°36'0 0.0
2014-Sep-01 13:28N 48°31' W 122°36'0 0.0
2014-Sep-01 12:28N 48°31' W 122°36'0 0.0
2014-Sep-01 11:28N 48°31' W 122°36'0 0.0
2014-Sep-01 10:16N 48°31' W 122°36'0 0.0
2014-Sep-01 09:22N 48°31' W 122°36'0 0.0
2014-Sep-01 08:22N 48°31' W 122°36'0 0.0
2014-Sep-01 07:28N 48°31' W 122°36'0 0.0
2014-Sep-01 06:28N 48°31' W 122°36'0 0.0
2014-Sep-01 05:28N 48°31' W 122°36'0 0.0
2014-Sep-01 04:28N 48°31' W 122°36'0 0.0
2014-Sep-01 03:10N 48°31' W 122°36'0 0.0
2014-Sep-01 02:28N 48°31' W 122°36'0 0.0
2014-Sep-01 01:28N 48°31' W 122°36'0 0.0
2014-Sep-01 00:16N 48°31' W 122°36'0 0.0
2014-Aug-31 23:28N 48°31' W 122°36'0 0.0
2014-Aug-31 22:28N 48°31' W 122°36'0 0.0
2014-Aug-31 21:28N 48°31' W 122°36'0 0.0
2014-Aug-31 20:28N 48°31' W 122°36'0 0.0
2014-Aug-31 19:28N 48°31' W 122°36'0 0.0
2014-Aug-31 18:28N 48°31' W 122°36'0 0.0
2014-Aug-31 17:28N 48°31' W 122°36'0 0.0
2014-Aug-31 16:28N 48°31' W 122°36'0 0.0
2014-Aug-31 15:28N 48°31' W 122°36'0 0.0
2014-Aug-31 14:28N 48°31' W 122°36'0 0.0
2014-Aug-31 13:28N 48°31' W 122°36'0 0.0
2014-Aug-31 12:28N 48°31' W 122°36'0 0.0
2014-Aug-31 11:28N 48°31' W 122°36'0 0.0
2014-Aug-31 10:28N 48°31' W 122°36'0 0.0
2014-Aug-31 09:28N 48°31' W 122°36'0 0.0
2014-Aug-31 08:28N 48°31' W 122°36'0 0.0
2014-Aug-31 07:28N 48°31' W 122°36'0 0.0
2014-Aug-31 06:28N 48°31' W 122°36'0 0.0
2014-Aug-31 05:22N 48°31' W 122°36'0 0.0
2014-Aug-31 04:28N 48°31' W 122°36'0 0.0
2014-Aug-31 03:28N 48°31' W 122°36'0 0.0
2014-Aug-31 02:28N 48°31' W 122°36'0 0.0
2014-Aug-31 01:28N 48°31' W 122°36'0 0.0
2014-Aug-31 00:28N 48°31' W 122°36'0 0.0
2014-Aug-30 23:28N 48°31' W 122°36'0 0.0
2014-Aug-30 22:28N 48°31' W 122°36'0 0.0
2014-Aug-30 21:28N 48°31' W 122°36'0 0.0
2014-Aug-30 20:28N 48°31' W 122°36'0 0.0
2014-Aug-30 19:22N 48°31' W 122°36'0 0.0
2014-Aug-30 18:28N 48°31' W 122°36'0 0.0
2014-Aug-30 17:28N 48°31' W 122°36'0 0.0
2014-Aug-30 16:28N 48°31' W 122°36'0 0.0
2014-Aug-30 15:28N 48°31' W 122°36'0 0.0
2014-Aug-30 14:28N 48°31' W 122°36'0 0.0
2014-Aug-30 13:28N 48°31' W 122°36'0 0.0
2014-Aug-30 12:16N 48°31' W 122°36'0 0.0
2014-Aug-30 11:28N 48°31' W 122°36'0 0.0
2014-Aug-30 10:28N 48°31' W 122°36'0 0.0
2014-Aug-30 09:28N 48°31' W 122°36'0 0.0
2014-Aug-30 08:28N 48°31' W 122°36'0 0.0
2014-Aug-30 07:28N 48°31' W 122°36'0 0.0
2014-Aug-30 06:28N 48°31' W 122°36'0 0.0
2014-Aug-30 05:28N 48°31' W 122°36'0 0.0
2014-Aug-30 04:28N 48°31' W 122°36'0 0.0
2014-Aug-30 03:28N 48°31' W 122°36'0 0.0
2014-Aug-30 02:22N 48°31' W 122°36'0 0.0
2014-Aug-30 01:28N 48°31' W 122°36'0 0.0
2014-Aug-30 00:28N 48°31' W 122°36'0 0.0
2014-Aug-29 23:28N 48°31' W 122°36'0 0.0
2014-Aug-29 22:28N 48°31' W 122°36'0 0.0
2014-Aug-29 21:28N 48°31' W 122°36'0 0.0
2014-Aug-29 20:28N 48°31' W 122°36'0 0.0
2014-Aug-29 19:28N 48°31' W 122°36'0 0.0
2014-Aug-29 18:28N 48°31' W 122°36'0 0.0
2014-Aug-29 17:28N 48°31' W 122°36'0 0.0
2014-Aug-29 16:28N 48°31' W 122°36'0 0.0
2014-Aug-29 15:22N 48°31' W 122°36'0 0.0
2014-Aug-29 14:31N 48°31' W 122°36'0 0.0
2014-Aug-29 13:28N 48°31' W 122°36'0 0.0
2014-Aug-29 12:31N 48°31' W 122°36'0 0.0
2014-Aug-29 11:28N 48°31' W 122°36'0 0.0
2014-Aug-29 10:28N 48°31' W 122°36'0 0.0
2014-Aug-29 09:28N 48°31' W 122°36'0 0.0
2014-Aug-29 08:22N 48°31' W 122°36'0 0.0
2014-Aug-29 07:28N 48°31' W 122°36'0 0.0
2014-Aug-29 06:22N 48°31' W 122°36'0 0.0
2014-Aug-29 05:28N 48°31' W 122°36'0 0.0
2014-Aug-29 04:28N 48°31' W 122°36'0 0.0
2014-Aug-29 03:22N 48°31' W 122°36'0 0.0
2014-Aug-29 02:28N 48°31' W 122°36'0 0.0
2014-Aug-29 01:28N 48°31' W 122°36'0 0.0
2014-Aug-29 00:16N 48°31' W 122°36'0 0.0
2014-Aug-28 23:28N 48°31' W 122°36'0 0.0
2014-Aug-28 22:28N 48°31' W 122°36'0 0.0
2014-Aug-28 21:33N 48°31' W 122°36'1 0.6
2014-Aug-28 20:33N 48°31' W 122°36'2 2.3
2014-Aug-28 19:34N 48°32' W 122°40'8 7.8
2014-Aug-28 18:33N 48°36' W 122°49'1 0.9
2014-Aug-28 17:33N 48°36' W 122°49'1 0.9
2014-Aug-28 16:33N 48°36' W 122°49'7 7.4
2014-Aug-28 15:33N 48°32' W 122°40'2 2.4
2014-Aug-28 14:31N 48°31' W 122°36'0 0.0
2014-Aug-28 13:31N 48°31' W 122°36'0 0.0
2014-Aug-28 12:31N 48°31' W 122°36'0 0.0
2014-Aug-28 11:31N 48°31' W 122°36'0 0.0
2014-Aug-28 10:31N 48°31' W 122°36'0 0.0
2014-Aug-28 09:31N 48°31' W 122°36'0 0.0
2014-Aug-28 08:25N 48°31' W 122°36'0 0.0
2014-Aug-28 07:31N 48°31' W 122°36'0 0.0
2014-Aug-28 06:31N 48°31' W 122°36'0 0.0
2014-Aug-28 05:31N 48°31' W 122°36'0 0.0
2014-Aug-28 04:31N 48°31' W 122°36'0 0.0
2014-Aug-28 03:33N 48°31' W 122°36'6 6.3
2014-Aug-28 02:33N 48°32' W 122°46'8 7.6
2014-Aug-28 01:33N 48°33' W 122°57'1 0.7
2014-Aug-27 23:32N 48°32' W 122°59'7 7.6
2014-Aug-27 22:33N 48°32' W 122°48'8 7.7
2014-Aug-27 21:33N 48°31' W 122°36'0 0.0
2014-Aug-27 20:33N 48°31' W 122°36'5 4.7
2014-Aug-27 19:33N 48°32' W 122°43'9 7.6
2014-Aug-27 18:21N 48°32' W 122°57'2 1.0
2014-Aug-27 16:19N 48°32' W 122°60'6 7.7
2014-Aug-27 15:33N 48°34' W 122°52'8 8.2
2014-Aug-27 14:33N 48°32' W 122°40'2 2.3
2014-Aug-27 13:32N 48°31' W 122°36'0 0.0
2014-Aug-27 12:32N 48°31' W 122°36'0 0.0
2014-Aug-27 11:32N 48°31' W 122°36'0 0.0
2014-Aug-27 10:32N 48°31' W 122°36'0 0.0
2014-Aug-27 09:32N 48°31' W 122°36'0 0.0
2014-Aug-27 08:32N 48°31' W 122°36'3 3.3
2014-Aug-27 07:33N 48°32' W 122°41'8 8.3
2014-Aug-27 06:33N 48°35' W 122°53'5 3.6
2014-Aug-27 05:08N 48°36' W 123°00'5 8.5
2014-Aug-27 04:33N 48°41' W 122°60'10 9.5
2014-Aug-27 03:33N 48°51' W 122°59'9 9.3
2014-Aug-27 02:33N 48°59' W 123°06'3 2.9
2014-Aug-27 01:33N 48°57' W 123°03'10 9.7
2014-Aug-27 00:33N 48°49' W 122°54'1010.2
2014-Aug-26 23:33N 48°41' W 122°45'9 8.7
2014-Aug-26 22:31N 48°32' W 122°44'10 8.1
2014-Aug-26 21:18N 48°24' W 122°34'0 0.2
2014-Aug-26 20:05N 48°25' W 122°34'1 1.2
2014-Aug-26 19:05N 48°25' W 122°36'4 7.7
2014-Aug-26 18:31N 48°27' W 122°42'6 5.8
2014-Aug-26 17:33N 48°31' W 122°37'1 0.6
2014-Aug-26 16:33N 48°32' W 122°38'1 0.8
2014-Aug-26 15:30N 48°31' W 122°36'0 0.0
2014-Aug-26 14:30N 48°31' W 122°36'0 0.0
2014-Aug-26 13:30N 48°31' W 122°36'0 0.0
2014-Aug-26 12:30N 48°31' W 122°36'0 0.0
2014-Aug-26 11:30N 48°31' W 122°36'0 0.0
2014-Aug-26 10:33N 48°31' W 122°36'0 0.0
2014-Aug-26 09:33N 48°31' W 122°36'0 0.0
2014-Aug-26 08:30N 48°31' W 122°36'0 0.0
2014-Aug-26 07:30N 48°31' W 122°36'0 0.0
2014-Aug-26 06:33N 48°31' W 122°36'7 6.7
2014-Aug-26 05:33N 48°37' W 122°42'9 8.7
2014-Aug-26 04:34N 48°44' W 122°48'1010.0
2014-Aug-26 03:33N 48°52' W 122°57'9 7.4
2014-Aug-26 02:23N 48°59' W 123°05'0 0.2
2014-Aug-26 01:34N 48°59' W 123°05'9 8.6
2014-Aug-26 00:33N 48°52' W 122°58'9 8.9
2014-Aug-25 23:33N 48°45' W 122°49'9 9.1
2014-Aug-25 22:33N 48°37' W 122°42'7 7.4
2014-Aug-25 21:33N 48°31' W 122°36'0 0.0
2014-Aug-25 20:33N 48°31' W 122°36'0 0.0
2014-Aug-25 19:33N 48°31' W 122°36'7 7.1
2014-Aug-25 18:33N 48°34' W 122°46'1 0.7
2014-Aug-25 17:33N 48°35' W 122°46'7 6.8
2014-Aug-25 16:33N 48°31' W 122°37'7 6.5
2014-Aug-25 15:33N 48°37' W 122°42'0 0.0
2014-Aug-25 14:33N 48°37' W 122°42'6 6.0
2014-Aug-25 13:33N 48°32' W 122°38'1 0.8
2014-Aug-25 12:30N 48°31' W 122°36'0 0.0
2014-Aug-25 11:30N 48°31' W 122°36'0 0.0
2014-Aug-25 10:30N 48°31' W 122°36'0 0.0
2014-Aug-25 09:24N 48°31' W 122°36'0 0.0
2014-Aug-25 08:30N 48°31' W 122°36'0 0.0
2014-Aug-25 07:30N 48°31' W 122°36'0 0.0
2014-Aug-25 06:30N 48°31' W 122°36'0 0.0
2014-Aug-25 05:30N 48°31' W 122°36'0 0.0
2014-Aug-25 04:30N 48°31' W 122°36'0 0.0
2014-Aug-25 03:30N 48°31' W 122°36'0 0.0
2014-Aug-25 02:30N 48°31' W 122°36'0 0.0
2014-Aug-25 01:24N 48°31' W 122°36'0 0.0
2014-Aug-25 00:24N 48°31' W 122°36'0 0.0
2014-Aug-24 23:30N 48°31' W 122°36'0 0.0
2014-Aug-24 22:30N 48°31' W 122°36'0 0.0
2014-Aug-24 21:30N 48°31' W 122°36'0 0.0
2014-Aug-24 20:30N 48°31' W 122°36'0 0.0
2014-Aug-24 19:24N 48°31' W 122°36'0 0.0
2014-Aug-24 18:12N 48°31' W 122°36'0 0.0
2014-Aug-24 17:30N 48°31' W 122°36'0 0.0
2014-Aug-24 16:30N 48°31' W 122°36'0 0.0
2014-Aug-24 15:30N 48°31' W 122°36'0 0.0
2014-Aug-24 14:30N 48°31' W 122°36'0 0.0
2014-Aug-24 13:30N 48°31' W 122°36'0 0.0
2014-Aug-24 12:30N 48°31' W 122°36'0 0.0
2014-Aug-24 11:30N 48°31' W 122°36'0 0.0
2014-Aug-24 10:30N 48°31' W 122°36'0 0.0
2014-Aug-24 09:30N 48°31' W 122°36'0 0.0
2014-Aug-24 08:30N 48°31' W 122°36'0 0.0
2014-Aug-24 07:24N 48°31' W 122°36'0 0.0
2014-Aug-24 06:12N 48°31' W 122°36'0 0.0
2014-Aug-24 05:30N 48°31' W 122°36'0 0.0
2014-Aug-24 04:30N 48°31' W 122°36'0 0.0
2014-Aug-24 03:30N 48°31' W 122°36'0 0.0
2014-Aug-24 02:30N 48°31' W 122°36'  

Dump ship's entire track history